createdAt,value
2023-05-21T00:01:16.681Z,43.70
2023-05-21T00:03:21.850Z,43.88
2023-05-21T00:05:26.931Z,44.04
2023-05-21T00:07:31.761Z,44.03
2023-05-21T00:09:38.387Z,43.52
2023-05-21T00:11:45.917Z,43.62
2023-05-21T00:13:50.836Z,43.55
2023-05-21T00:15:56.019Z,43.76
2023-05-21T00:18:01.028Z,43.62
2023-05-21T00:20:09.168Z,43.62
2023-05-21T00:22:14.467Z,43.50
2023-05-21T00:24:19.273Z,43.53
2023-05-21T00:26:24.420Z,43.30
2023-05-21T00:28:35.336Z,43.59
2023-05-21T00:30:40.352Z,43.28
2023-05-21T00:32:45.404Z,43.45
2023-05-21T00:34:50.806Z,43.21
2023-05-21T00:36:56.042Z,42.96
2023-05-21T00:39:02.622Z,42.80
2023-05-21T00:41:07.864Z,42.86
2023-05-21T00:43:14.493Z,42.82
2023-05-21T00:45:24.288Z,42.68
2023-05-21T00:47:29.888Z,42.87
2023-05-21T00:49:35.330Z,42.93
2023-05-21T00:51:40.372Z,43.14
2023-05-21T00:53:47.614Z,43.10
2023-05-21T00:55:53.822Z,42.76
2023-05-21T00:57:58.855Z,42.77
2023-05-21T01:00:05.026Z,42.66
2023-05-21T01:02:14.492Z,42.39
2023-05-21T01:04:20.626Z,42.56
2023-05-21T01:06:25.490Z,42.53
2023-05-21T01:08:30.947Z,42.62
2023-05-21T01:10:36.112Z,42.67
2023-05-21T01:12:42.844Z,42.70
2023-05-21T01:14:48.285Z,42.76
2023-05-21T01:16:53.808Z,42.77
2023-05-21T01:19:03.619Z,42.57
2023-05-21T01:21:09.953Z,42.61
2023-05-21T01:23:18.025Z,41.91
2023-05-21T01:25:23.131Z,42.15
2023-05-21T01:27:27.949Z,42.24
2023-05-21T01:29:32.910Z,42.19
2023-05-21T01:31:45.279Z,41.81
2023-05-21T01:33:52.880Z,42.09
2023-05-21T01:36:02.866Z,42.15
2023-05-21T01:38:15.195Z,42.29
2023-05-21T01:40:28.771Z,42.25
2023-05-21T01:42:35.111Z,42.03
2023-05-21T01:44:40.702Z,42.16
2023-05-21T01:46:45.709Z,41.86
2023-05-21T01:48:51.901Z,41.93
2023-05-21T01:50:58.218Z,42.06
2023-05-21T01:53:04.142Z,42.13
2023-05-21T01:55:09.809Z,42.25
2023-05-21T01:57:17.331Z,41.92
2023-05-21T01:59:22.389Z,42.25
2023-05-21T02:01:27.277Z,41.81
2023-05-21T02:03:32.573Z,42.47
2023-05-21T02:05:37.864Z,41.90
2023-05-21T02:07:44.039Z,42.16
2023-05-21T02:09:49.153Z,42.03
2023-05-21T02:11:55.957Z,42.07
2023-05-21T02:14:04.102Z,41.98
2023-05-21T02:16:10.404Z,42.26
2023-05-21T02:18:17.086Z,42.33
2023-05-21T02:20:23.009Z,41.92
2023-05-21T02:22:27.854Z,41.82
2023-05-21T02:24:32.850Z,42.31
2023-05-21T02:26:37.676Z,42.23
2023-05-21T02:28:42.538Z,41.85
2023-05-21T02:30:49.953Z,42.09
2023-05-21T02:32:55.130Z,41.88
2023-05-21T02:35:00.131Z,42.24
2023-05-21T02:37:05.063Z,41.75
2023-05-21T02:39:09.876Z,42.34
2023-05-21T02:41:15.144Z,42.22
2023-05-21T02:43:21.038Z,42.20
2023-05-21T02:45:25.993Z,42.02
2023-05-21T02:47:33.919Z,41.80
2023-05-21T02:49:39.154Z,41.93
2023-05-21T02:51:44.133Z,42.18
2023-05-21T02:53:49.015Z,41.80
2023-05-21T02:55:54.152Z,41.88
2023-05-21T02:57:59.077Z,42.24
2023-05-21T03:00:05.287Z,41.98
2023-05-21T03:02:10.837Z,42.08
2023-05-21T03:04:18.657Z,42.00
2023-05-21T03:06:23.474Z,42.23
2023-05-21T03:08:28.385Z,42.34
2023-05-21T03:10:33.365Z,42.33
2023-05-21T03:12:38.214Z,42.30
2023-05-21T03:14:44.251Z,42.08
2023-05-21T03:16:49.391Z,42.37
2023-05-21T03:18:56.123Z,42.05
2023-05-21T03:21:04.594Z,42.18
2023-05-21T03:23:09.807Z,42.51
2023-05-21T03:25:15.001Z,42.19
2023-05-21T03:27:19.923Z,42.28
2023-05-21T03:29:26.144Z,42.36
2023-05-21T03:31:31.176Z,42.35
2023-05-21T03:33:47.653Z,42.15
2023-05-21T03:36:06.175Z,42.70
2023-05-21T03:38:14.793Z,42.52
2023-05-21T03:40:20.086Z,42.48
2023-05-21T03:42:25.015Z,42.81
2023-05-21T03:44:33.002Z,43.00
2023-05-21T03:46:58.062Z,42.79
2023-05-21T03:49:08.747Z,42.60
2023-05-21T03:51:20.343Z,43.11
2023-05-21T03:53:25.786Z,42.66
2023-05-21T03:55:31.137Z,43.15
2023-05-21T03:57:36.105Z,42.61
2023-05-21T03:59:40.936Z,43.04
2023-05-21T04:01:46.064Z,43.26
2023-05-21T04:03:54.083Z,43.25
2023-05-21T04:06:01.811Z,43.40
2023-05-21T04:08:09.299Z,43.38
2023-05-21T04:10:15.042Z,43.15
2023-05-21T04:12:20.424Z,43.62
2023-05-21T04:14:26.205Z,43.46
2023-05-21T04:16:31.378Z,43.32
2023-05-21T04:18:36.308Z,43.62
2023-05-21T04:20:41.580Z,43.65
2023-05-21T04:22:46.490Z,43.43
2023-05-21T04:24:54.803Z,43.94
2023-05-21T04:27:04.720Z,43.88
2023-05-21T04:29:10.116Z,43.82
2023-05-21T04:31:15.909Z,43.64
2023-05-21T04:33:20.948Z,43.77
2023-05-21T04:35:26.291Z,43.85
2023-05-21T04:37:31.643Z,43.94
2023-05-21T04:39:37.085Z,44.02
2023-05-21T04:41:45.103Z,43.78
2023-05-21T04:43:49.993Z,43.61
2023-05-21T04:45:55.227Z,43.81
2023-05-21T04:48:03.263Z,43.75
2023-05-21T04:50:10.670Z,44.22
2023-05-21T04:52:15.993Z,43.84
2023-05-21T04:54:21.517Z,44.12
2023-05-21T04:56:26.628Z,44.25
2023-05-21T04:58:34.750Z,44.43
2023-05-21T05:00:42.441Z,44.24
2023-05-21T05:02:47.534Z,44.23
2023-05-21T05:04:52.658Z,44.15
2023-05-21T05:06:57.550Z,44.55
2023-05-21T05:09:02.735Z,44.61
2023-05-21T05:11:08.792Z,44.53
2023-05-21T05:13:13.899Z,44.47
2023-05-21T05:15:21.471Z,44.55
2023-05-21T05:17:27.695Z,44.42
2023-05-21T05:19:32.731Z,45.06
2023-05-21T05:21:37.985Z,44.68
2023-05-21T05:23:42.879Z,44.83
2023-05-21T05:25:47.814Z,44.92
2023-05-21T05:27:52.802Z,44.79
2023-05-21T05:29:57.690Z,44.72
2023-05-21T05:32:05.231Z,45.43
2023-05-21T05:34:10.105Z,45.29
2023-05-21T05:36:16.729Z,44.97
2023-05-21T05:38:21.950Z,45.14
2023-05-21T05:40:26.751Z,45.15
2023-05-21T05:42:32.113Z,45.12
2023-05-21T05:44:40.236Z,45.39
2023-05-21T05:46:45.977Z,45.63
2023-05-21T05:48:53.510Z,45.64
2023-05-21T05:50:58.447Z,45.70
2023-05-21T05:53:04.565Z,45.79
2023-05-21T05:55:12.265Z,45.55
2023-05-21T05:57:17.365Z,45.65
2023-05-21T05:59:24.321Z,45.60
2023-05-21T06:01:34.556Z,45.59
2023-05-21T06:03:39.798Z,45.70
2023-05-21T06:05:52.783Z,45.66
2023-05-21T06:07:58.071Z,45.80
2023-05-21T06:10:03.191Z,45.96
2023-05-21T06:12:12.266Z,45.79
2023-05-21T06:14:19.689Z,45.66
2023-05-21T06:16:24.649Z,45.89
2023-05-21T06:18:31.121Z,46.01
2023-05-21T06:20:36.032Z,46.04
2023-05-21T06:22:44.232Z,45.73
2023-05-21T06:24:49.237Z,46.07
2023-05-21T06:26:54.206Z,46.27
2023-05-21T06:29:00.156Z,46.25
2023-05-21T06:31:04.995Z,46.06
2023-05-21T06:33:11.795Z,45.81
2023-05-21T06:35:16.908Z,46.10
2023-05-21T06:37:25.914Z,45.94
2023-05-21T06:39:34.014Z,46.03
2023-05-21T06:41:39.033Z,46.04
2023-05-21T06:44:01.566Z,46.02
2023-05-21T06:46:24.821Z,46.34
2023-05-21T06:48:30.754Z,46.16
2023-05-21T06:50:36.135Z,46.10
2023-05-21T06:52:41.146Z,45.91
2023-05-21T06:54:48.787Z,45.91
2023-05-21T06:56:53.832Z,45.91
2023-05-21T06:58:59.578Z,46.12
2023-05-21T07:01:06.220Z,46.02
2023-05-21T07:03:11.485Z,46.26
2023-05-21T07:05:16.381Z,46.16
2023-05-21T07:07:21.514Z,46.38
2023-05-21T07:09:26.783Z,45.83
2023-05-21T07:11:34.387Z,45.69
2023-05-21T07:13:40.928Z,46.24
2023-05-21T07:15:45.965Z,45.81
2023-05-21T07:17:51.363Z,45.72
2023-05-21T07:19:56.718Z,45.74
2023-05-21T07:22:02.628Z,45.83
2023-05-21T07:24:07.663Z,45.57
2023-05-21T07:26:16.215Z,45.61
2023-05-21T07:28:24.086Z,45.75
2023-05-21T07:30:28.885Z,45.75
2023-05-21T07:32:34.006Z,45.11
2023-05-21T07:34:38.870Z,45.09
2023-05-21T07:36:43.934Z,44.86
2023-05-21T07:38:49.867Z,44.83
2023-05-21T07:40:57.056Z,45.31
2023-05-21T07:43:02.249Z,45.04
2023-05-21T07:45:12.516Z,44.99
2023-05-21T07:47:20.705Z,44.86
2023-05-21T07:49:25.954Z,45.16
2023-05-21T07:51:31.515Z,44.88
2023-05-21T07:53:36.757Z,45.03
2023-05-21T07:55:48.132Z,44.86
2023-05-21T07:57:56.797Z,44.73
2023-05-21T08:00:09.704Z,44.42
2023-05-21T08:02:22.752Z,44.56
2023-05-21T08:04:28.257Z,44.75
2023-05-21T08:06:34.355Z,44.71
2023-05-21T08:08:39.874Z,44.49
2023-05-21T08:10:44.853Z,44.87
2023-05-21T08:12:49.907Z,44.87
2023-05-21T08:14:55.677Z,44.61
2023-05-21T08:17:01.453Z,44.28
2023-05-21T08:19:10.243Z,44.94
2023-05-21T08:21:16.032Z,44.69
2023-05-21T08:23:21.646Z,45.05
2023-05-21T08:25:31.120Z,44.78
2023-05-21T08:27:38.675Z,44.56
2023-05-21T08:29:43.825Z,44.52
2023-05-21T08:31:48.862Z,44.00
2023-05-21T08:33:54.426Z,44.05
2023-05-21T08:36:11.399Z,43.50
2023-05-21T08:38:23.026Z,43.67
2023-05-21T08:40:41.770Z,43.35
2023-05-21T08:42:48.486Z,43.23
2023-05-21T08:45:02.269Z,42.69
2023-05-21T08:47:10.618Z,42.88
2023-05-21T08:49:17.745Z,43.26
2023-05-21T08:51:25.542Z,42.46
2023-05-21T08:53:31.602Z,42.74
2023-05-21T08:55:39.100Z,43.01
2023-05-21T08:57:46.874Z,43.26
2023-05-21T08:59:54.573Z,43.10
2023-05-21T09:02:04.942Z,43.15
2023-05-21T09:04:21.197Z,43.16
2023-05-21T09:06:34.357Z,43.31
2023-05-21T09:08:46.663Z,42.74
2023-05-21T09:11:04.709Z,42.95
2023-05-21T09:13:17.496Z,42.65
2023-05-21T09:15:23.056Z,42.43
2023-05-21T09:17:28.148Z,42.53
2023-05-21T09:19:41.373Z,42.48
2023-05-21T09:21:49.094Z,41.60
2023-05-21T09:23:59.321Z,41.14
2023-05-21T09:26:04.498Z,41.62
2023-05-21T09:28:15.221Z,41.08
2023-05-21T09:30:24.808Z,41.54
2023-05-21T09:32:31.981Z,41.16
2023-05-21T09:34:39.097Z,40.82
2023-05-21T09:36:44.482Z,41.07
2023-05-21T09:38:57.981Z,40.74
2023-05-21T09:41:07.397Z,40.58
2023-05-21T09:43:17.074Z,40.34
2023-05-21T09:45:22.758Z,40.88
2023-05-21T09:47:29.532Z,40.84
2023-05-21T09:49:35.141Z,40.57
2023-05-21T09:51:41.925Z,39.68
2023-05-21T09:53:51.910Z,39.59
2023-05-21T09:56:01.293Z,39.39
2023-05-21T09:58:06.401Z,38.96
2023-05-21T10:00:13.409Z,39.16
2023-05-21T10:02:21.122Z,38.66
2023-05-21T10:04:26.695Z,38.57
2023-05-21T10:06:33.894Z,38.37
2023-05-21T10:08:40.271Z,38.52
2023-05-21T10:10:46.665Z,38.60
2023-05-21T10:12:58.033Z,38.16
2023-05-21T10:15:04.387Z,38.33
2023-05-21T10:17:09.674Z,38.08
2023-05-21T10:19:16.098Z,37.91
2023-05-21T10:21:21.694Z,37.47
2023-05-21T10:23:26.878Z,37.38
2023-05-21T10:25:33.932Z,36.98
2023-05-21T10:27:39.891Z,37.29
2023-05-21T10:29:48.321Z,37.34
2023-05-21T10:31:56.107Z,36.67
2023-05-21T10:34:02.042Z,36.97
2023-05-21T10:36:08.148Z,36.71
2023-05-21T10:38:14.130Z,36.64
2023-05-21T10:40:19.177Z,36.62
2023-05-21T10:42:46.674Z,35.98
2023-05-21T10:45:07.295Z,36.25
2023-05-21T10:47:34.791Z,35.66
2023-05-21T10:49:57.550Z,35.54
2023-05-21T10:52:11.286Z,35.32
2023-05-21T10:54:54.600Z,35.00
2023-05-21T10:57:06.564Z,36.66
2023-05-21T10:59:22.395Z,35.93
2023-05-21T11:01:34.118Z,34.89
2023-05-21T11:03:40.736Z,35.80
2023-05-21T11:05:55.557Z,34.64
2023-05-21T11:08:01.776Z,34.99
2023-05-21T11:10:34.587Z,34.30
2023-05-21T11:12:39.675Z,35.72
2023-05-21T11:14:44.803Z,34.97
2023-05-21T11:16:52.334Z,33.97
2023-05-21T11:19:04.522Z,33.41
2023-05-21T11:21:12.312Z,33.86
2023-05-21T11:23:18.196Z,33.57
2023-05-21T11:25:23.084Z,33.64
2023-05-21T11:27:36.075Z,33.65
2023-05-21T11:29:41.488Z,33.56
2023-05-21T11:31:49.461Z,33.62
2023-05-21T11:34:14.964Z,33.85
2023-05-21T11:36:19.828Z,33.75
2023-05-21T11:38:24.821Z,33.19
2023-05-21T11:40:31.180Z,32.58
2023-05-21T11:42:37.362Z,32.44
2023-05-21T11:44:42.964Z,32.23
2023-05-21T11:46:49.195Z,32.61
2023-05-21T11:48:55.565Z,32.39
2023-05-21T11:51:04.082Z,31.96
2023-05-21T11:53:09.229Z,31.90
2023-05-21T11:55:15.906Z,32.00
2023-05-21T11:57:21.573Z,32.24
2023-05-21T11:59:26.528Z,32.33
2023-05-21T12:01:31.352Z,32.22
2023-05-21T12:03:37.904Z,31.44
2023-05-21T12:05:47.958Z,31.41
2023-05-21T12:07:56.862Z,31.45
2023-05-21T12:10:01.818Z,31.36
2023-05-21T12:12:07.688Z,31.60
2023-05-21T12:14:13.457Z,31.72
2023-05-21T12:16:18.513Z,31.60
2023-05-21T12:18:24.129Z,31.36
2023-05-21T12:20:30.704Z,31.26
2023-05-21T12:22:35.921Z,31.03
2023-05-21T12:24:44.002Z,30.20
2023-05-21T12:26:49.751Z,30.37
2023-05-21T12:28:55.452Z,30.71
2023-05-21T12:31:00.409Z,31.01
2023-05-21T12:33:05.747Z,30.94
2023-05-21T12:35:11.689Z,31.45
2023-05-21T12:37:20.693Z,31.86
2023-05-21T12:39:25.581Z,31.99
2023-05-21T12:41:33.118Z,31.72
2023-05-21T12:43:37.978Z,31.72
2023-05-21T12:45:43.384Z,31.90
2023-05-21T12:47:56.567Z,30.98
2023-05-21T12:50:02.431Z,30.93
2023-05-21T12:52:09.009Z,31.31
2023-05-21T12:54:16.965Z,30.84
2023-05-21T12:56:21.961Z,31.04
2023-05-21T12:58:29.402Z,30.49
2023-05-21T13:00:36.168Z,30.71
2023-05-21T13:02:42.856Z,30.75
2023-05-21T13:04:49.650Z,30.57
2023-05-21T13:06:54.794Z,30.94
2023-05-21T13:08:59.548Z,30.58
2023-05-21T13:11:04.829Z,30.57
2023-05-21T13:13:09.827Z,31.22
2023-05-21T13:15:17.579Z,31.16
2023-05-21T13:17:23.021Z,31.06
2023-05-21T13:19:28.052Z,31.47
2023-05-21T13:21:32.948Z,31.70
2023-05-21T13:23:38.263Z,32.02
2023-05-21T13:25:43.191Z,32.63
2023-05-21T13:27:48.197Z,32.77
2023-05-21T13:29:53.019Z,32.43
2023-05-21T13:32:00.477Z,32.02
2023-05-21T13:34:05.652Z,32.35
2023-05-21T13:36:11.103Z,32.50
2023-05-21T13:38:16.055Z,32.32
2023-05-21T13:40:21.066Z,32.04
2023-05-21T13:42:26.343Z,32.42
2023-05-21T13:44:33.543Z,32.72
2023-05-21T13:46:39.708Z,32.58
2023-05-21T13:48:47.628Z,32.88
2023-05-21T13:50:52.789Z,32.92
2023-05-21T13:52:57.826Z,33.14
2023-05-21T13:55:02.754Z,32.52
2023-05-21T13:57:07.952Z,32.38
2023-05-21T13:59:12.808Z,32.54
2023-05-21T14:01:17.907Z,32.59
2023-05-21T14:03:23.221Z,33.01
2023-05-21T14:05:30.727Z,32.68
2023-05-21T14:07:35.897Z,33.16
2023-05-21T14:09:41.200Z,32.89
2023-05-21T14:11:46.573Z,32.61
2023-05-21T14:13:51.528Z,32.79
2023-05-21T14:15:56.835Z,32.82
2023-05-21T14:18:02.199Z,32.61
2023-05-21T14:20:07.895Z,33.02
2023-05-21T14:22:15.485Z,32.78
2023-05-21T14:24:20.261Z,33.09
2023-05-21T14:26:25.226Z,32.43
2023-05-21T14:28:30.187Z,32.67
2023-05-21T14:30:35.458Z,32.37
2023-05-21T14:32:40.953Z,32.37
2023-05-21T14:34:45.871Z,32.49
2023-05-21T14:36:50.655Z,32.94
2023-05-21T14:38:58.093Z,33.13
2023-05-21T14:41:03.201Z,32.74
2023-05-21T14:43:08.712Z,32.75
2023-05-21T14:45:19.063Z,33.30
2023-05-21T14:47:24.410Z,33.07
2023-05-21T14:49:29.264Z,33.32
2023-05-21T14:51:34.474Z,33.49
2023-05-21T14:53:39.527Z,33.42
2023-05-21T14:55:47.345Z,33.77
2023-05-21T14:57:52.107Z,33.09
2023-05-21T14:59:56.948Z,32.87
2023-05-21T15:02:02.091Z,33.07
2023-05-21T15:04:08.175Z,33.04
2023-05-21T15:06:15.627Z,33.47
2023-05-21T15:08:21.148Z,33.33
2023-05-21T15:10:27.072Z,33.38
2023-05-21T15:12:34.662Z,33.72
2023-05-21T15:14:40.140Z,33.75
2023-05-21T15:16:45.228Z,33.15
2023-05-21T15:18:50.457Z,32.88
2023-05-21T15:20:55.828Z,33.11
2023-05-21T15:25:10.497Z,33.21
2023-05-21T15:27:15.393Z,33.46
2023-05-21T15:29:23.195Z,32.86
2023-05-21T15:31:28.087Z,33.19
2023-05-21T15:33:33.204Z,33.22
2023-05-21T15:35:39.376Z,33.26
2023-05-21T15:37:45.649Z,33.31
2023-05-21T15:39:53.490Z,33.59
2023-05-21T15:41:58.586Z,33.77
2023-05-21T15:44:03.581Z,33.82
2023-05-21T15:46:12.782Z,33.60
2023-05-21T15:48:22.762Z,34.17
2023-05-21T15:50:27.700Z,33.75
2023-05-21T15:52:32.523Z,33.97
2023-05-21T15:54:37.340Z,33.92
2023-05-21T15:56:42.251Z,34.04
2023-05-21T15:58:47.345Z,34.14
2023-05-21T16:00:52.245Z,34.40
2023-05-21T16:02:59.809Z,34.26
2023-05-21T16:05:05.027Z,33.94
2023-05-21T16:07:10.110Z,33.82
2023-05-21T16:09:15.073Z,34.25
2023-05-21T16:11:20.082Z,34.16
2023-05-21T16:13:25.026Z,34.15
2023-05-21T16:15:32.551Z,34.48
2023-05-21T16:17:37.404Z,34.42
2023-05-21T16:19:44.940Z,34.38
2023-05-21T16:21:49.840Z,34.47
2023-05-21T16:23:55.037Z,34.29
2023-05-21T16:26:00.177Z,34.37
2023-05-21T16:28:05.066Z,34.48
2023-05-21T16:30:12.012Z,34.32
2023-05-21T16:32:17.174Z,34.28
2023-05-21T16:34:22.250Z,34.19
2023-05-21T16:36:29.914Z,34.60
2023-05-21T16:38:34.787Z,34.31
2023-05-21T16:40:40.788Z,34.49
2023-05-21T16:42:45.757Z,34.70
2023-05-21T16:44:50.913Z,34.72
2023-05-21T16:46:56.212Z,34.20
2023-05-21T16:49:01.544Z,34.44
2023-05-21T16:51:06.638Z,34.30
2023-05-21T16:53:14.094Z,34.53
2023-05-21T16:55:19.100Z,34.43
2023-05-21T16:57:24.358Z,34.23
2023-05-21T16:59:29.355Z,34.17
2023-05-21T17:01:34.540Z,33.95
2023-05-21T17:03:41.011Z,34.28
2023-05-21T17:05:48.286Z,34.39
2023-05-21T17:07:53.718Z,34.38
2023-05-21T17:10:01.529Z,34.21
2023-05-21T17:12:06.990Z,34.34
2023-05-21T17:14:13.644Z,34.60
2023-05-21T17:16:25.459Z,34.87
2023-05-21T17:18:31.689Z,34.60
2023-05-21T17:20:36.623Z,34.24
2023-05-21T17:22:41.927Z,34.26
2023-05-21T17:24:47.065Z,34.69
2023-05-21T17:26:56.371Z,34.31
2023-05-21T17:29:01.533Z,34.44
2023-05-21T17:31:07.265Z,34.81
2023-05-21T17:33:12.362Z,34.64
2023-05-21T17:35:17.627Z,34.66
2023-05-21T17:37:22.554Z,34.77
2023-05-21T17:39:27.946Z,34.60
2023-05-21T17:41:32.932Z,35.00
2023-05-21T17:43:40.398Z,34.92
2023-05-21T17:45:45.729Z,34.57
2023-05-21T17:47:50.780Z,34.63
2023-05-21T17:49:56.023Z,34.85
2023-05-21T17:52:03.412Z,35.14
2023-05-21T17:54:08.801Z,34.68
2023-05-21T17:56:14.101Z,34.97
2023-05-21T17:58:18.960Z,34.91
2023-05-21T18:00:26.767Z,35.09
2023-05-21T18:02:31.996Z,35.36
2023-05-21T18:04:37.064Z,35.06
2023-05-21T18:06:42.296Z,34.83
2023-05-21T18:08:47.358Z,34.91
2023-05-21T18:10:52.281Z,35.03
2023-05-21T18:12:57.468Z,35.35
2023-05-21T18:15:02.491Z,35.11
2023-05-21T18:17:10.080Z,35.12
2023-05-21T18:19:15.080Z,35.54
2023-05-21T18:21:20.147Z,35.13
2023-05-21T18:23:25.078Z,35.25
2023-05-21T18:25:30.332Z,35.32
2023-05-21T18:27:35.170Z,35.50
2023-05-21T18:29:40.190Z,35.05
2023-05-21T18:31:47.111Z,35.14
2023-05-21T18:33:55.109Z,35.21
2023-05-21T18:36:00.477Z,35.41
2023-05-21T18:38:10.049Z,35.08
2023-05-21T18:40:17.661Z,35.12
2023-05-21T18:42:22.460Z,35.03
2023-05-21T18:44:27.542Z,35.21
2023-05-21T18:46:32.477Z,35.06
2023-05-21T18:48:37.342Z,35.29
2023-05-21T18:50:45.169Z,35.08
2023-05-21T18:52:51.585Z,35.07
2023-05-21T18:54:57.144Z,35.32
2023-05-21T18:57:02.238Z,34.98
2023-05-21T18:59:07.897Z,35.34
2023-05-21T19:01:13.012Z,35.11
2023-05-21T19:03:18.166Z,34.95
2023-05-21T19:05:23.451Z,35.00
2023-05-21T19:07:31.119Z,35.56
2023-05-21T19:09:35.955Z,35.03
2023-05-21T19:11:40.911Z,35.21
2023-05-21T19:13:47.267Z,35.03
2023-05-21T19:15:52.219Z,35.44
2023-05-21T19:17:57.225Z,35.22
2023-05-21T19:20:02.303Z,35.35
2023-05-21T19:22:07.447Z,35.44
2023-05-21T19:24:14.998Z,35.43
2023-05-21T19:26:20.106Z,35.52
2023-05-21T19:28:25.171Z,35.32
2023-05-21T19:30:30.093Z,35.87
2023-05-21T19:32:35.369Z,35.46
2023-05-21T19:34:40.662Z,35.78
2023-05-21T19:36:53.406Z,35.84
2023-05-21T19:38:59.022Z,35.34
2023-05-21T19:41:06.467Z,35.55
2023-05-21T19:43:13.010Z,35.89
2023-05-21T19:45:18.182Z,35.57
2023-05-21T19:47:23.347Z,35.85
2023-05-21T19:49:28.360Z,35.69
2023-05-21T19:51:33.170Z,36.05
2023-05-21T19:53:38.373Z,36.11
2023-05-21T19:55:44.616Z,35.72
2023-05-21T19:57:52.379Z,35.74
2023-05-21T19:59:57.260Z,35.80
2023-05-21T20:02:02.497Z,36.17
2023-05-21T20:04:07.965Z,36.28
2023-05-21T20:06:12.941Z,36.01
2023-05-21T20:08:18.461Z,36.00
2023-05-21T20:10:24.165Z,36.15
2023-05-21T20:12:29.236Z,35.94
2023-05-21T20:14:37.022Z,36.09
2023-05-21T20:16:42.505Z,36.18
2023-05-21T20:18:48.254Z,36.24
2023-05-21T20:20:53.170Z,36.02
2023-05-21T20:23:03.377Z,36.24
2023-05-21T20:25:10.785Z,36.00
2023-05-21T20:27:19.647Z,36.08
2023-05-21T20:29:24.543Z,36.25
2023-05-21T20:31:32.481Z,36.57
2023-05-21T20:33:41.017Z,36.55
2023-05-21T20:35:46.058Z,36.12
2023-05-21T20:37:52.780Z,36.25
2023-05-21T20:39:58.427Z,36.69
2023-05-21T20:42:03.472Z,36.44
2023-05-21T20:44:09.390Z,36.71
2023-05-21T20:46:14.497Z,36.70
2023-05-21T20:48:22.316Z,36.44
2023-05-21T20:50:29.145Z,36.35
2023-05-21T20:52:37.225Z,36.79
2023-05-21T20:54:42.803Z,36.46
2023-05-21T20:56:50.937Z,36.81
2023-05-21T20:58:55.912Z,36.54
2023-05-21T21:01:02.243Z,36.68
2023-05-21T21:03:10.631Z,36.89
2023-05-21T21:05:20.245Z,37.19
2023-05-21T21:07:25.528Z,36.60
2023-05-21T21:09:30.698Z,36.96
2023-05-21T21:11:35.582Z,36.88
2023-05-21T21:13:41.113Z,37.00
2023-05-21T21:15:46.254Z,37.09
2023-05-21T21:17:51.503Z,37.25
2023-05-21T21:19:56.421Z,37.00
2023-05-21T21:22:04.198Z,37.16
2023-05-21T21:24:10.086Z,37.26
2023-05-21T21:26:15.015Z,36.92
2023-05-21T21:28:19.861Z,37.14
2023-05-21T21:30:24.792Z,37.36
2023-05-21T21:32:29.957Z,37.11
2023-05-21T21:34:34.848Z,37.47
2023-05-21T21:36:39.764Z,37.36
2023-05-21T21:38:47.393Z,37.11
2023-05-21T21:40:52.549Z,37.08
2023-05-21T21:42:57.481Z,37.38
2023-05-21T21:45:02.353Z,37.25
2023-05-21T21:47:07.909Z,37.57
2023-05-21T21:49:14.755Z,37.47
2023-05-21T21:51:23.207Z,37.33
2023-05-21T21:53:28.492Z,37.40
2023-05-21T21:55:36.200Z,37.28
2023-05-21T21:57:42.073Z,37.36
2023-05-21T21:59:46.995Z,37.36
2023-05-21T22:01:52.119Z,37.73
2023-05-21T22:03:58.065Z,37.65
2023-05-21T22:06:03.006Z,37.28
2023-05-21T22:08:08.675Z,37.70
2023-05-21T22:10:14.309Z,37.35
2023-05-21T22:12:22.846Z,37.68
2023-05-21T22:14:28.083Z,37.45
2023-05-21T22:16:33.592Z,37.69
2023-05-21T22:18:41.013Z,37.84
2023-05-21T22:20:46.876Z,37.55
2023-05-21T22:22:55.209Z,37.78
2023-05-21T22:25:00.577Z,37.80
2023-05-21T22:27:05.442Z,37.91
2023-05-21T22:29:13.605Z,37.73
2023-05-21T22:31:19.236Z,37.69
2023-05-21T22:33:24.563Z,37.90
2023-05-21T22:35:29.508Z,37.86
2023-05-21T22:37:34.905Z,38.02
2023-05-21T22:39:39.982Z,37.88
2023-05-21T22:41:45.032Z,37.63
2023-05-21T22:43:49.884Z,38.11
2023-05-21T22:45:57.540Z,38.17
2023-05-21T22:48:03.530Z,37.85
2023-05-21T22:50:10.429Z,37.75
2023-05-21T22:52:16.791Z,38.36
2023-05-21T22:54:21.700Z,38.00
2023-05-21T22:56:26.791Z,38.01
2023-05-21T22:58:31.897Z,38.11
2023-05-21T23:00:37.202Z,38.48
2023-05-21T23:02:45.006Z,38.46
2023-05-21T23:04:50.539Z,38.27
2023-05-21T23:06:55.463Z,38.56
2023-05-21T23:09:00.409Z,38.34
2023-05-21T23:11:05.413Z,38.54
2023-05-21T23:13:10.243Z,38.21
2023-05-21T23:15:15.468Z,38.62
2023-05-21T23:17:20.412Z,38.32
2023-05-21T23:19:28.162Z,38.78
2023-05-21T23:21:33.173Z,38.79
2023-05-21T23:23:38.064Z,38.52
2023-05-21T23:25:43.165Z,38.36
2023-05-21T23:27:48.236Z,38.50
2023-05-21T23:29:53.248Z,38.70
2023-05-21T23:31:58.412Z,38.54
2023-05-21T23:34:04.922Z,38.72
2023-05-21T23:36:13.428Z,38.93
2023-05-21T23:38:18.280Z,38.68
2023-05-21T23:40:23.480Z,39.12
2023-05-21T23:42:28.442Z,39.08
2023-05-21T23:44:33.429Z,38.91
2023-05-21T23:46:38.393Z,39.17
2023-05-21T23:48:43.344Z,38.86
2023-05-21T23:50:48.167Z,38.86
2023-05-21T23:52:55.871Z,39.24
2023-05-21T23:55:00.841Z,39.10
2023-05-21T23:57:05.742Z,39.16
2023-05-21T23:59:10.685Z,39.12
